Portada
METAR-TAF:

METAR-TAF

Aeroports :

Fitchburg, Massachusetts, Estats Units d'Amèrica

latitud: 42-33-07N, longitud: 071-45-21W, altitud: 106 m

Observació

L'informe es va fer fa 46 minuts, a les 03:52 UTC
Vent 3 kt del Nord/Nord-Oest
Temperatura -1°C
Humitat 86%
Pressió 1020 hPa
Visibilitat: 16.1 km
Cel clar

METAR: KFIT 300352Z AUTO 34003KT 10SM CLR M01/M03 A3011 RMK AO2 SLP201 T10111028

Hora: 23:38 (04:38 UTC)


TAF: manca

Observacions i pronòstics meteorològics de més de 4000 aeroports (METAR i TAF).

Les estacions disponibles són els punts grocs i vermells al mapa.

Posi el ratolí al punt desitjat per veure el nom de l'estació.

Feu clic per veure les observacions i els pronòstics meteorològics.

Per canviar el mapa: feu clic els botons verds amb una creu de color negre per apropar; al botó verd amb un guió per allunyar la imatge; o en les fletxes verdes per a mapes adjacents.


METAR-TAF: